Time;durP1;ratioP1;P1;durP2;ratioP2;P2;SDS_P1;SDS_P2;PMS_P1;PMS_P2;Temp;Humidity;BMP_temperature;BMP_pressure;BME280_temperature;BME280_humidity;BME280_pressure;Samples;Min_cycle;Max_cycle;Signal;HPM_P1;HPM_P2
2023/06/09 00:01:35;;;;;;;4.77;4.37;;;13.90;99.90;;;;;;5072414;28;20557;-67
2023/06/09 00:04:02;;;;;;;4.57;3.97;;;13.80;99.90;;;;;;5073136;28;20458;-67
2023/06/09 00:06:30;;;;;;;4.20;3.80;;;13.80;99.90;;;;;;5072677;28;20469;-67
2023/06/09 00:08:58;;;;;;;5.27;4.30;;;13.80;99.90;;;;;;5072874;28;20481;-67
2023/06/09 00:11:25;;;;;;;6.00;4.57;;;13.70;99.90;;;;;;5072303;28;20458;-68
2023/06/09 00:13:52;;;;;;;4.90;4.03;;;13.70;99.90;;;;;;5072583;28;20459;-67
2023/06/09 00:16:18;;;;;;;5.80;4.27;;;13.70;99.90;;;;;;5072727;28;20497;-67
2023/06/09 00:18:46;;;;;;;5.33;4.83;;;13.70;99.90;;;;;;5071999;28;20994;-67
2023/06/09 00:21:17;;;;;;;5.67;4.13;;;13.70;99.90;;;;;;5071740;28;20864;-67
2023/06/09 00:23:45;;;;;;;7.90;4.77;;;13.60;99.90;;;;;;5072788;28;21075;-67
2023/06/09 00:26:12;;;;;;;4.90;4.37;;;13.60;99.90;;;;;;5072484;28;20954;-66
2023/06/09 00:28:39;;;;;;;4.43;4.03;;;13.50;99.90;;;;;;5072130;28;20489;-67
2023/06/09 00:31:06;;;;;;;6.23;4.30;;;13.50;99.90;;;;;;5072114;28;20827;-67
2023/06/09 00:33:33;;;;;;;4.50;3.83;;;13.50;99.90;;;;;;5072197;28;20463;-67
2023/06/09 00:36:00;;;;;;;5.00;4.50;;;13.50;99.90;;;;;;5072359;28;20458;-67
2023/06/09 00:38:26;;;;;;;4.90;4.20;;;13.40;99.90;;;;;;5072134;28;20486;-67
2023/06/09 00:40:54;;;;;;;4.37;3.97;;;13.40;99.90;;;;;;5071604;28;20478;-67
2023/06/09 00:43:21;;;;;;;5.37;4.90;;;13.40;99.90;;;;;;5072227;28;20529;-68
2023/06/09 00:45:48;;;;;;;4.97;4.30;;;13.40;99.90;;;;;;5071890;28;20463;-67
2023/06/09 00:48:15;;;;;;;5.63;3.80;;;13.40;99.90;;;;;;5072192;28;20929;-67
2023/06/09 00:50:42;;;;;;;5.73;3.80;;;13.40;99.90;;;;;;5071261;28;20450;-67
2023/06/09 00:53:09;;;;;;;4.43;4.03;;;13.30;99.90;;;;;;5072104;28;20459;-67
2023/06/09 00:55:39;;;;;;;4.87;4.40;;;13.30;99.90;;;;;;5071708;28;20811;-67
2023/06/09 00:58:09;;;;;;;5.83;5.13;;;13.40;99.90;;;;;;5071927;28;20486;-67
2023/06/09 01:00:38;;;;;;;5.47;4.90;;;13.30;99.90;;;;;;5071357;28;20509;-67
2023/06/09 01:03:09;;;;;;;5.63;4.37;;;13.20;99.90;;;;;;5072534;28;20466;-67
2023/06/09 01:05:38;;;;;;;5.00;4.57;;;13.30;99.90;;;;;;5071511;28;20462;-67
2023/06/09 01:08:14;;;;;;;4.83;4.37;;;13.20;99.90;;;;;;5071733;28;20561;-68
2023/06/09 01:10:48;;;;;;;6.40;4.43;;;13.20;99.90;;;;;;5071167;28;20545;-67
2023/06/09 01:13:25;;;;;;;4.57;4.10;;;13.20;99.90;;;;;;5071732;28;20463;-67
2023/06/09 01:15:57;;;;;;;5.30;4.80;;;13.20;99.90;;;;;;5071345;28;20469;-67
2023/06/09 01:18:26;;;;;;;5.00;4.47;;;13.20;99.90;;;;;;5071404;28;20489;-67
2023/06/09 01:21:06;;;;;;;5.47;4.80;;;13.20;99.90;;;;;;5070931;28;20534;-67
2023/06/09 01:23:44;;;;;;;5.07;4.57;;;13.20;99.90;;;;;;5071264;28;20536;-67
2023/06/09 01:26:15;;;;;;;5.47;3.80;;;13.10;99.90;;;;;;5071510;28;20458;-67
2023/06/09 01:28:43;;;;;;;4.60;4.13;;;13.10;99.90;;;;;;5071235;28;20817;-67
2023/06/09 01:31:14;;;;;;;7.10;4.37;;;13.10;99.90;;;;;;5070710;28;20454;-67
2023/06/09 01:33:42;;;;;;;5.30;4.70;;;13.10;99.90;;;;;;5070911;28;20467;-67
2023/06/09 01:36:09;;;;;;;5.03;4.43;;;13.00;99.90;;;;;;5071228;28;20499;-67
2023/06/09 01:38:36;;;;;;;5.27;4.60;;;13.00;99.90;;;;;;5070761;28;20482;-67
2023/06/09 01:41:03;;;;;;;5.10;4.60;;;12.90;99.90;;;;;;5071572;28;20478;-67
2023/06/09 01:43:31;;;;;;;5.23;4.27;;;12.90;99.90;;;;;;5070988;28;20959;-67
2023/06/09 01:45:58;;;;;;;7.07;5.00;;;12.90;99.90;;;;;;5071144;28;20467;-67
2023/06/09 01:48:31;;;;;;;7.70;4.30;;;12.90;99.90;;;;;;5070934;28;20478;-67
2023/06/09 01:51:04;;;;;;;4.87;4.00;;;12.90;99.90;;;;;;5070305;28;20938;-67
2023/06/09 01:53:35;;;;;;;5.17;4.47;;;12.90;99.90;;;;;;5070842;28;20501;-67
2023/06/09 01:56:08;;;;;;;5.63;4.83;;;12.80;99.90;;;;;;5063337;28;20976;-67
2023/06/09 01:58:41;;;;;;;4.97;4.47;;;12.80;99.90;;;;;;5070571;28;20482;-67
2023/06/09 02:01:08;;;;;;;5.37;4.63;;;12.80;99.90;;;;;;5070333;28;20553;-67
2023/06/09 02:03:40;;;;;;;4.80;4.17;;;12.80;99.90;;;;;;5070533;28;20950;-67
2023/06/09 02:06:08;;;;;;;5.50;5.00;;;12.80;99.90;;;;;;5070786;28;20466;-67
2023/06/09 02:08:35;;;;;;;6.00;4.47;;;12.70;99.90;;;;;;5069939;28;20478;-67
2023/06/09 02:11:02;;;;;;;5.17;4.67;;;12.70;99.90;;;;;;5070230;28;20463;-67
2023/06/09 02:13:29;;;;;;;5.20;4.50;;;12.70;99.90;;;;;;5070481;28;20465;-67
2023/06/09 02:15:57;;;;;;;5.60;4.10;;;12.70;99.90;;;;;;5070358;28;20451;-67
2023/06/09 02:18:24;;;;;;;4.70;4.07;;;12.70;99.90;;;;;;5070656;28;20504;-67
2023/06/09 02:20:52;;;;;;;5.33;4.77;;;12.60;99.90;;;;;;5069830;28;20483;-67
2023/06/09 02:23:20;;;;;;;6.20;5.20;;;12.60;99.90;;;;;;5070491;28;20465;-67
2023/06/09 02:25:47;;;;;;;5.43;4.90;;;12.60;99.90;;;;;;5070315;28;20463;-68
2023/06/09 02:28:16;;;;;;;5.10;4.53;;;12.60;99.90;;;;;;5070441;28;20478;-67
2023/06/09 02:30:43;;;;;;;5.90;4.47;;;12.60;99.90;;;;;;5069719;28;20459;-67
2023/06/09 02:33:14;;;;;;;4.57;4.17;;;12.50;99.90;;;;;;5070433;28;20470;-67
2023/06/09 02:35:41;;;;;;;7.17;4.70;;;12.50;99.90;;;;;;5070236;28;20464;-67
2023/06/09 02:38:07;;;;;;;5.97;4.90;;;12.50;99.90;;;;;;5070430;28;20474;-67
2023/06/09 02:40:34;;;;;;;5.77;4.83;;;12.40;99.90;;;;;;5069937;28;20903;-67
2023/06/09 02:43:01;;;;;;;7.03;4.87;;;12.40;99.90;;;;;;5071762;28;20977;-67
2023/06/09 02:45:28;;;;;;;5.90;4.90;;;12.40;99.90;;;;;;5074027;28;20466;-67
2023/06/09 02:47:55;;;;;;;5.23;4.50;;;12.40;99.90;;;;;;5074040;28;20478;-67
2023/06/09 02:50:24;;;;;;;5.70;4.73;;;12.40;99.90;;;;;;5074085;28;20462;-67
2023/06/09 02:52:51;;;;;;;4.63;4.23;;;12.40;99.90;;;;;;5073812;28;20462;-68
2023/06/09 02:55:18;;;;;;;5.60;4.80;;;12.40;99.90;;;;;;5074235;28;20467;-67
2023/06/09 02:57:45;;;;;;;5.83;4.70;;;12.30;99.90;;;;;;5073639;28;20543;-67
2023/06/09 03:00:12;;;;;;;7.17;5.13;;;12.30;99.90;;;;;;5073875;28;20478;-67
2023/06/09 03:02:40;;;;;;;5.07;4.57;;;12.40;99.90;;;;;;5073361;28;20454;-67
2023/06/09 03:05:09;;;;;;;6.47;4.90;;;12.40;99.90;;;;;;5073913;28;20470;-67
2023/06/09 03:07:37;;;;;;;5.30;4.70;;;12.30;99.90;;;;;;5073578;28;20502;-68
2023/06/09 03:10:05;;;;;;;6.40;4.87;;;12.40;99.90;;;;;;5073822;28;20855;-68
2023/06/09 03:12:32;;;;;;;5.00;4.37;;;12.30;99.90;;;;;;5073539;28;20465;-67
2023/06/09 03:14:59;;;;;;;5.10;4.43;;;12.30;99.90;;;;;;5073450;28;20466;-67
2023/06/09 03:17:26;;;;;;;4.77;4.23;;;12.30;99.90;;;;;;5073496;28;20553;-68
2023/06/09 03:19:53;;;;;;;5.33;4.30;;;12.30;99.90;;;;;;5073168;28;20458;-68
2023/06/09 03:22:20;;;;;;;4.50;4.10;;;12.30;99.90;;;;;;5073388;28;20450;-67
2023/06/09 03:24:48;;;;;;;5.30;4.80;;;12.30;99.90;;;;;;5073167;28;20458;-67
2023/06/09 03:27:15;;;;;;;5.50;5.00;;;12.20;99.90;;;;;;5073897;28;20550;-67
2023/06/09 03:29:42;;;;;;;4.90;4.50;;;12.30;99.90;;;;;;5073001;28;20880;-67
2023/06/09 03:32:08;;;;;;;5.20;4.67;;;12.20;99.90;;;;;;5073121;28;20521;-67
2023/06/09 03:34:35;;;;;;;6.53;5.30;;;12.20;99.90;;;;;;5073272;28;20459;-68
2023/06/09 03:37:03;;;;;;;6.50;5.00;;;12.20;99.90;;;;;;5073238;28;20458;-68
2023/06/09 03:39:29;;;;;;;4.87;4.37;;;12.20;99.90;;;;;;5072999;28;20548;-67
2023/06/09 03:41:57;;;;;;;7.83;5.53;;;12.20;99.90;;;;;;5072826;28;20482;-68
2023/06/09 03:44:25;;;;;;;6.72;5.28;;;12.20;99.90;;;;;;5073387;28;20462;-68
2023/06/09 03:46:51;;;;;;;5.30;4.80;;;12.20;99.90;;;;;;5072891;28;20204;-68
2023/06/09 03:49:18;;;;;;;4.60;4.20;;;12.20;99.90;;;;;;5072770;28;20478;-67
2023/06/09 03:51:45;;;;;;;6.87;5.90;;;12.30;99.90;;;;;;5072439;28;20454;-68
2023/06/09 03:54:11;;;;;;;7.00;5.20;;;12.20;99.90;;;;;;5071806;28;20465;-67
2023/06/09 03:56:38;;;;;;;7.95;5.35;;;12.30;99.90;;;;;;5072752;28;20197;-68
2023/06/09 03:59:06;;;;;;;6.23;5.67;;;12.20;99.90;;;;;;5072876;28;20216;-68
2023/06/09 04:01:33;;;;;;;6.93;5.43;;;12.20;99.90;;;;;;5072212;28;20489;-67
2023/06/09 04:04:00;;;;;;;7.30;5.30;;;12.20;99.90;;;;;;5072860;28;20490;-67
2023/06/09 04:06:28;;;;;;;7.40;5.20;;;12.20;99.90;;;;;;5072710;28;20473;-67
2023/06/09 04:08:55;;;;;;;6.80;5.33;;;12.20;99.90;;;;;;5072453;28;20999;-68
2023/06/09 04:11:22;;;;;;;7.37;5.67;;;12.30;99.90;;;;;;5072462;28;20459;-68
2023/06/09 04:13:48;;;;;;;6.57;5.80;;;12.30;99.90;;;;;;5072862;28;20516;-67
2023/06/09 04:16:17;;;;;;;6.40;5.50;;;12.30;99.90;;;;;;5072636;28;20465;-67
2023/06/09 04:18:43;;;;;;;6.03;4.80;;;12.30;99.90;;;;;;5072330;28;20489;-68
2023/06/09 04:21:11;;;;;;;6.40;4.87;;;12.40;99.90;;;;;;5072057;28;20482;-68
2023/06/09 04:23:38;;;;;;;7.17;5.47;;;12.40;99.90;;;;;;5072423;28;20467;-67
2023/06/09 04:26:05;;;;;;;5.90;5.03;;;12.40;99.90;;;;;;5072320;28;20828;-68
2023/06/09 04:28:33;;;;;;;6.23;5.63;;;12.40;99.90;;;;;;5072277;28;20848;-68
2023/06/09 04:31:00;;;;;;;6.53;5.90;;;12.50;99.90;;;;;;5071832;28;20508;-68
2023/06/09 04:33:28;;;;;;;5.80;5.30;;;12.50;99.90;;;;;;5072298;28;20974;-67
2023/06/09 04:35:55;;;;;;;6.30;5.70;;;12.60;99.90;;;;;;5071979;28;20462;-68
2023/06/09 04:38:23;;;;;;;6.83;6.10;;;12.70;99.90;;;;;;5072196;28;20528;-68
2023/06/09 04:40:50;;;;;;;6.40;5.07;;;12.70;99.90;;;;;;5071495;28;20895;-68
2023/06/09 04:43:18;;;;;;;6.00;5.40;;;12.80;99.90;;;;;;5072258;28;20465;-68
2023/06/09 04:45:57;;;;;;;5.97;5.37;;;12.90;99.90;;;;;;5101332;22;20495;-92
2023/06/09 05:07:42;;;;;;;6.83;4.97;;;13.50;99.90;;;;;;5051213;22;20835;-70
2023/06/09 05:10:10;;;;;;;9.00;6.13;;;13.70;99.90;;;;;;5048099;28;20467;-70
2023/06/09 05:12:37;;;;;;;7.10;6.40;;;13.80;99.90;;;;;;5039810;28;20855;-69
2023/06/09 05:15:04;;;;;;;7.30;6.30;;;13.90;99.90;;;;;;5041832;28;20986;-70
2023/06/09 05:17:34;;;;;;;7.10;6.00;;;14.00;99.90;;;;;;5036909;28;20910;-69
2023/06/09 05:20:01;;;;;;;7.67;6.97;;;14.10;99.90;;;;;;5039451;28;20461;-70
2023/06/09 05:22:27;;;;;;;5.73;5.07;;;14.20;99.90;;;;;;5039597;28;20487;-70
2023/06/09 05:24:54;;;;;;;7.50;6.17;;;14.30;99.90;;;;;;5032106;28;20468;-70
2023/06/09 05:27:21;;;;;;;7.13;6.50;;;14.40;99.90;;;;;;5043223;28;20469;-70
2023/06/09 05:29:48;;;;;;;6.17;5.57;;;14.40;99.90;;;;;;5042521;28;20463;-70
2023/06/09 05:32:15;;;;;;;8.53;5.30;;;14.50;99.90;;;;;;5043073;28;20491;-70
2023/06/09 05:34:44;;;;;;;8.03;5.50;;;14.50;99.90;;;;;;5042883;28;20478;-69
2023/06/09 05:37:12;;;;;;;6.70;5.37;;;14.70;99.90;;;;;;5042530;28;20464;-69
2023/06/09 05:39:39;;;;;;;6.67;5.97;;;14.70;99.90;;;;;;5042606;28;20478;-69
2023/06/09 05:42:07;;;;;;;7.20;5.70;;;14.80;99.90;;;;;;5047748;28;20503;-70
2023/06/09 05:44:33;;;;;;;5.77;5.20;;;14.90;99.90;;;;;;5045449;28;20459;-71
2023/06/09 05:47:00;;;;;;;7.30;5.93;;;15.00;99.90;;;;;;5050516;28;20805;-69
2023/06/09 05:49:27;;;;;;;6.03;5.50;;;15.00;99.90;;;;;;5042391;28;20545;-69
2023/06/09 05:51:55;;;;;;;6.43;5.57;;;15.10;99.90;;;;;;5033933;28;20461;-69
2023/06/09 05:54:22;;;;;;;6.50;5.73;;;15.20;99.90;;;;;;5037970;28;20460;-69
2023/06/09 05:56:49;;;;;;;8.70;6.17;;;15.20;99.90;;;;;;5030336;28;20460;-69
2023/06/09 05:59:20;;;;;;;6.00;5.00;;;15.30;99.90;;;;;;5030279;28;20514;-69
2023/06/09 06:01:47;;;;;;;6.00;5.40;;;15.50;99.90;;;;;;5046884;28;20491;-69
2023/06/09 06:04:14;;;;;;;6.47;5.70;;;15.50;99.90;;;;;;5022669;28;20500;-69
2023/06/09 06:06:41;;;;;;;6.60;4.90;;;15.60;99.90;;;;;;5030538;28;20564;-70
2023/06/09 06:09:09;;;;;;;6.53;5.83;;;15.70;99.90;;;;;;5030142;28;20491;-69
2023/06/09 06:11:35;;;;;;;5.80;5.20;;;15.70;99.90;;;;;;5044846;28;20467;-69
2023/06/09 06:14:02;;;;;;;5.67;5.07;;;15.90;99.90;;;;;;5049968;28;20459;-70
2023/06/09 06:16:29;;;;;;;5.80;5.20;;;16.00;99.90;;;;;;5044804;28;20464;-69
2023/06/09 06:18:55;;;;;;;5.70;5.10;;;16.00;99.90;;;;;;5029356;28;20491;-69
2023/06/09 06:21:22;;;;;;;5.57;5.03;;;16.20;99.90;;;;;;5042755;28;20905;-69
2023/06/09 06:23:49;;;;;;;6.47;5.63;;;16.30;99.90;;;;;;5049891;28;20462;-69
2023/06/09 06:26:17;;;;;;;6.63;5.70;;;16.40;99.90;;;;;;5046516;28;20460;-69
2023/06/09 06:28:44;;;;;;;5.27;4.77;;;16.50;99.90;;;;;;5030098;28;20898;-70
2023/06/09 06:31:11;;;;;;;11.03;5.03;;;16.60;99.90;;;;;;5049056;28;20534;-69
2023/06/09 06:33:39;;;;;;;4.57;4.17;;;16.70;99.90;;;;;;5035449;28;20460;-69
2023/06/09 06:36:06;;;;;;;5.13;4.53;;;16.80;99.90;;;;;;5032525;28;20470;-69
2023/06/09 06:38:32;;;;;;;7.67;5.00;;;16.90;99.90;;;;;;5044240;28;20481;-70
2023/06/09 06:40:59;;;;;;;5.63;4.40;;;17.00;99.90;;;;;;5047722;28;20459;-69
2023/06/09 06:43:27;;;;;;;4.17;3.87;;;17.10;99.90;;;;;;5036966;28;20460;-69
2023/06/09 06:45:54;;;;;;;6.60;5.07;;;17.20;99.90;;;;;;5038594;28;20451;-69
2023/06/09 06:48:21;;;;;;;4.63;4.23;;;17.30;99.90;;;;;;5042985;28;20483;-70
2023/06/09 06:50:47;;;;;;;4.83;4.40;;;17.40;99.90;;;;;;5033237;28;20514;-69
2023/06/09 06:53:14;;;;;;;5.20;4.63;;;17.40;99.90;;;;;;5022187;28;20475;-69
2023/06/09 06:55:41;;;;;;;4.53;4.13;;;17.50;99.90;;;;;;5038577;28;20461;-69
2023/06/09 06:58:08;;;;;;;5.20;4.53;;;17.50;99.90;;;;;;5038140;28;20484;-69
2023/06/09 07:00:36;;;;;;;5.07;4.57;;;17.60;99.90;;;;;;5038405;28;20468;-69
2023/06/09 07:03:02;;;;;;;5.37;4.67;;;17.70;99.90;;;;;;5047823;28;20479;-69
2023/06/09 07:05:29;;;;;;;4.60;4.20;;;17.80;99.90;;;;;;5049987;28;20460;-69
2023/06/09 07:07:56;;;;;;;4.90;4.40;;;17.90;99.90;;;;;;5041286;28;20497;-69
2023/06/09 07:10:22;;;;;;;5.10;4.30;;;18.00;99.90;;;;;;5049729;28;20959;-70
2023/06/09 07:12:49;;;;;;;5.10;4.40;;;18.10;99.90;;;;;;5049308;28;20470;-69
2023/06/09 07:15:16;;;;;;;3.90;3.53;;;18.20;99.90;;;;;;5037982;28;20463;-69
2023/06/09 07:17:44;;;;;;;3.83;3.50;;;18.30;99.90;;;;;;5029662;28;20491;-69
2023/06/09 07:20:12;;;;;;;3.97;3.57;;;18.50;99.90;;;;;;5032417;28;20486;-69
2023/06/09 07:22:40;;;;;;;3.77;3.40;;;18.60;99.90;;;;;;5034547;28;20860;-69
2023/06/09 07:25:08;;;;;;;3.67;3.37;;;18.80;99.90;;;;;;5029407;28;20492;-69
2023/06/09 07:27:35;;;;;;;3.90;3.60;;;18.90;99.90;;;;;;5029585;28;20515;-69
2023/06/09 07:30:02;;;;;;;3.70;3.10;;;19.10;99.90;;;;;;5032151;28;20867;-70
2023/06/09 07:32:29;;;;;;;4.03;3.30;;;19.20;99.90;;;;;;5033402;28;20495;-69
2023/06/09 07:34:57;;;;;;;3.57;3.27;;;19.20;99.90;;;;;;5033942;28;20464;-70
2023/06/09 07:37:25;;;;;;;3.63;3.33;;;19.30;99.90;;;;;;5048349;28;20464;-69
2023/06/09 07:39:51;;;;;;;4.03;3.23;;;19.40;99.90;;;;;;5041548;28;20461;-69
2023/06/09 07:42:18;;;;;;;3.20;2.90;;;19.50;99.90;;;;;;5040628;28;20481;-69
2023/06/09 07:44:45;;;;;;;3.40;3.10;;;19.60;99.90;;;;;;5033252;28;20460;-69
2023/06/09 07:47:12;;;;;;;3.60;3.10;;;19.70;99.90;;;;;;5032599;28;20852;-69
2023/06/09 07:49:38;;;;;;;3.83;3.50;;;19.80;99.90;;;;;;5032836;28;20464;-69
2023/06/09 07:52:08;;;;;;;4.60;3.33;;;19.90;99.90;;;;;;5032370;28;20464;-69
2023/06/09 07:54:35;;;;;;;3.77;3.47;;;19.90;99.90;;;;;;5033084;28;20904;-69
2023/06/09 07:57:02;;;;;;;3.60;3.03;;;20.10;99.90;;;;;;5051047;28;20464;-69
2023/06/09 07:59:29;;;;;;;3.60;3.20;;;20.20;99.90;;;;;;5052619;28;20534;-69
2023/06/09 08:01:56;;;;;;;3.17;2.87;;;20.40;99.90;;;;;;5034802;28;20575;-69
2023/06/09 08:04:22;;;;;;;6.27;3.43;;;20.50;99.90;;;;;;5033118;28;20815;-69
2023/06/09 08:06:49;;;;;;;3.40;3.10;;;20.60;99.90;;;;;;5049432;28;20468;-70
2023/06/09 08:09:17;;;;;;;3.30;2.73;;;20.70;99.90;;;;;;5040547;28;20484;-69
2023/06/09 08:11:44;;;;;;;3.43;3.13;;;20.80;99.90;;;;;;5032288;28;20964;-69
2023/06/09 08:14:11;;;;;;;3.80;3.27;;;20.90;99.90;;;;;;5051890;28;20461;-69
2023/06/09 08:16:38;;;;;;;2.93;2.63;;;21.00;99.90;;;;;;5052597;28;20460;-70
2023/06/09 08:19:05;;;;;;;4.40;3.80;;;21.10;99.90;;;;;;5052011;28;20489;-70
2023/06/09 08:21:32;;;;;;;6.10;3.20;;;21.10;99.90;;;;;;5051880;28;20468;-69
2023/06/09 08:23:58;;;;;;;3.67;2.87;;;21.20;99.90;;;;;;5052039;28;20460;-69
2023/06/09 08:26:26;;;;;;;3.13;2.83;;;21.20;99.90;;;;;;5052287;28;20468;-69
2023/06/09 08:28:53;;;;;;;3.47;3.17;;;21.30;99.90;;;;;;5051660;28;20471;-69
2023/06/09 08:31:20;;;;;;;3.77;3.10;;;21.40;99.90;;;;;;5047640;28;20532;-69
2023/06/09 08:33:47;;;;;;;3.27;3.00;;;21.50;99.90;;;;;;5048574;28;20825;-70
2023/06/09 08:36:14;;;;;;;4.80;3.23;;;21.70;99.90;;;;;;5052245;28;20880;-69
2023/06/09 08:38:41;;;;;;;3.50;3.20;;;21.80;99.90;;;;;;5044979;28;20482;-69
2023/06/09 08:41:09;;;;;;;3.50;3.20;;;21.90;99.90;;;;;;5047230;28;20479;-70
2023/06/09 08:43:37;;;;;;;3.40;3.10;;;22.00;99.90;;;;;;5032124;28;20481;-69
2023/06/09 08:46:07;;;;;;;3.53;3.23;;;22.10;99.90;;;;;;5048232;28;20476;-69
2023/06/09 08:48:38;;;;;;;5.60;3.40;;;22.20;99.90;;;;;;5031927;28;20485;-70
2023/06/09 08:51:05;;;;;;;3.50;3.20;;;22.30;99.90;;;;;;5033498;28;20481;-69
2023/06/09 08:53:32;;;;;;;3.77;2.40;;;22.30;99.90;;;;;;5046283;28;20463;-70
2023/06/09 08:56:00;;;;;;;2.60;2.40;;;22.50;99.90;;;;;;5048301;28;20465;-70
2023/06/09 08:58:28;;;;;;;2.67;2.47;;;22.50;99.90;;;;;;5037075;28;20488;-69
2023/06/09 09:00:56;;;;;;;2.90;2.60;;;22.50;99.90;;;;;;5041897;28;20466;-69
2023/06/09 09:03:23;;;;;;;3.23;2.87;;;22.50;99.90;;;;;;5036352;28;20481;-69
2023/06/09 09:05:50;;;;;;;2.57;2.10;;;22.60;99.90;;;;;;5034639;28;20495;-69
2023/06/09 09:08:17;;;;;;;3.13;2.83;;;22.70;99.90;;;;;;5035561;28;20475;-70
2023/06/09 09:10:45;;;;;;;2.53;2.33;;;22.80;99.90;;;;;;5050862;28;20470;-69
2023/06/09 09:13:12;;;;;;;2.87;2.67;;;22.70;99.90;;;;;;5031594;28;20552;-70
2023/06/09 09:15:47;;;;;;;2.90;2.50;;;22.80;99.90;;;;;;5031396;28;20470;-69
2023/06/09 09:18:17;;;;;;;2.30;2.10;;;22.90;99.90;;;;;;5042965;28;20477;-70
2023/06/09 09:20:44;;;;;;;2.77;2.53;;;23.00;99.90;;;;;;5050713;28;20523;-70
2023/06/09 09:23:11;;;;;;;3.00;2.53;;;23.10;99.90;;;;;;5050962;28;20571;-70
2023/06/09 09:25:38;;;;;;;3.63;2.67;;;23.30;99.90;;;;;;5051194;28;20489;-70
2023/06/09 09:28:06;;;;;;;3.10;2.90;;;23.40;99.90;;;;;;5050710;28;20526;-70
2023/06/09 09:30:49;;;;;;;3.10;2.90;;;23.60;99.90;;;;;;5050813;28;20470;-70
2023/06/09 09:33:20;;;;;;;3.03;2.77;;;23.70;99.90;;;;;;5035255;28;20466;-70
2023/06/09 09:35:48;;;;;;;3.30;2.80;;;23.70;99.90;;;;;;5042901;28;20456;-70
2023/06/09 09:38:17;;;;;;;2.53;2.33;;;23.80;99.90;;;;;;5022997;28;20480;-70
2023/06/09 09:40:46;;;;;;;2.80;2.57;;;23.90;99.90;;;;;;5046335;28;20462;-70
2023/06/09 09:43:13;;;;;;;2.57;2.37;;;24.00;99.90;;;;;;5050451;28;20507;-70
2023/06/09 09:45:42;;;;;;;2.47;2.23;;;24.10;99.90;;;;;;5051010;28;20460;-70
2023/06/09 09:48:11;;;;;;;2.57;2.37;;;24.20;99.90;;;;;;5033884;28;20491;-69
2023/06/09 09:50:39;;;;;;;2.83;2.63;;;24.30;99.90;;;;;;5036016;28;20460;-70
2023/06/09 09:53:07;;;;;;;2.37;2.17;;;24.30;99.90;;;;;;5029415;28;20481;-70
2023/06/09 09:55:35;;;;;;;4.13;2.47;;;24.30;99.90;;;;;;5030738;28;20875;-70
2023/06/09 09:58:05;;;;;;;3.23;2.93;;;24.40;99.90;;;;;;5030234;28;20481;-70
2023/06/09 10:00:35;;;;;;;2.37;2.17;;;24.60;99.90;;;;;;5030442;28;20467;-70
2023/06/09 10:03:07;;;;;;;2.20;2.00;;;24.60;99.90;;;;;;5029852;28;20970;-70
2023/06/09 10:05:36;;;;;;;4.30;2.57;;;24.60;98.80;;;;;;5036810;28;20464;-70
2023/06/09 10:08:06;;;;;;;2.60;2.37;;;24.60;98.90;;;;;;5050080;28;20472;-69
2023/06/09 10:10:34;;;;;;;2.30;2.03;;;24.60;99.90;;;;;;5050201;28;20490;-70
2023/06/09 10:13:03;;;;;;;1.77;1.67;;;24.70;99.90;;;;;;5031862;28;20481;-70
2023/06/09 10:15:30;;;;;;;2.43;2.23;;;24.80;99.80;;;;;;5036016;28;20953;-70
2023/06/09 10:17:59;;;;;;;2.47;2.27;;;24.90;98.80;;;;;;5049894;28;20857;-70
2023/06/09 10:20:26;;;;;;;2.37;2.17;;;24.90;99.10;;;;;;5042031;28;20465;-70
2023/06/09 10:22:53;;;;;;;2.60;2.30;;;24.90;98.30;;;;;;5049572;28;20745;-71
2023/06/09 10:25:23;;;;;;;2.43;2.23;;;25.00;98.80;;;;;;5037961;28;20457;-70
2023/06/09 10:27:51;;;;;;;2.40;2.20;;;25.00;98.10;;;;;;5030143;28;20487;-70
2023/06/09 10:30:19;;;;;;;2.23;2.03;;;25.10;96.90;;;;;;5046075;28;20456;-70
2023/06/09 10:32:52;;;;;;;2.50;2.30;;;25.10;97.90;;;;;;5046116;28;20484;-70
2023/06/09 10:35:24;;;;;;;2.03;1.83;;;25.20;98.80;;;;;;5050287;28;20466;-70
2023/06/09 10:37:51;;;;;;;2.23;2.03;;;25.40;99.80;;;;;;5033222;28;20486;-70
2023/06/09 10:40:26;;;;;;;1.90;1.80;;;25.60;98.50;;;;;;5029901;28;20471;-70
2023/06/09 10:43:11;;;;;;;2.33;2.13;;;25.70;97.90;;;;;;5037898;28;21022;-70
2023/06/09 10:45:53;;;;;;;2.07;1.90;;;25.90;97.60;;;;;;5123041;22;20483;-68
2023/06/09 10:48:44;;;;;;;2.10;1.90;;;26.10;98.80;;;;;;5057792;28;20913;-68
2023/06/09 10:51:40;;;;;;;2.50;2.30;;;26.30;98.90;;;;;;5066627;28;20459;-68
2023/06/09 10:54:20;;;;;;;2.23;2.03;;;26.50;98.30;;;;;;5060897;28;20462;-68
2023/06/09 10:56:52;;;;;;;2.60;2.40;;;26.50;96.50;;;;;;5062465;28;20553;-68
2023/06/09 11:00:11;;;;;;;2.30;2.10;;;26.40;97.70;;;;;;5049815;28;20541;-68
2023/06/09 11:02:38;;;;;;;2.60;2.40;;;26.40;96.00;;;;;;5053190;28;21081;-68
2023/06/09 11:05:05;;;;;;;3.00;2.20;;;26.30;96.50;;;;;;5071954;28;20958;-68
2023/06/09 11:07:41;;;;;;;2.77;2.50;;;26.40;95.50;;;;;;5073151;28;20488;-68
2023/06/09 11:10:36;;;;;;;2.07;1.90;;;26.30;96.50;;;;;;5054524;28;20916;-68
2023/06/09 11:13:38;;;;;;;2.63;2.43;;;26.50;98.40;;;;;;5053837;28;20832;-68
2023/06/09 11:16:05;;;;;;;2.63;2.20;;;26.60;96.30;;;;;;5064350;28;20489;-68
2023/06/09 11:18:32;;;;;;;2.30;2.10;;;26.80;98.50;;;;;;5065352;28;20484;-68
2023/06/09 11:21:20;;;;;;;3.97;2.23;;;26.90;97.10;;;;;;5063642;28;20918;-68
2023/06/09 11:24:01;;;;;;;3.20;2.90;;;27.00;96.90;;;;;;5061677;28;20513;-68
2023/06/09 11:26:29;;;;;;;2.60;2.00;;;27.00;96.60;;;;;;5060157;28;20844;-68
2023/06/09 11:28:57;;;;;;;2.30;2.10;;;27.00;96.00;;;;;;5061803;28;20468;-68
2023/06/09 11:31:24;;;;;;;2.70;2.50;;;27.00;96.20;;;;;;5066144;28;20464;-68
2023/06/09 11:33:53;;;;;;;2.30;2.10;;;27.10;96.60;;;;;;5065032;28;20451;-68
2023/06/09 11:36:21;;;;;;;2.83;2.53;;;27.20;95.60;;;;;;5053176;28;20469;-68
2023/06/09 11:38:49;;;;;;;3.10;2.60;;;27.10;95.90;;;;;;5053468;28;20486;-68
2023/06/09 11:41:21;;;;;;;2.50;2.30;;;27.00;95.00;;;;;;5044982;28;20521;-68
2023/06/09 11:43:52;;;;;;;2.43;2.23;;;27.00;94.60;;;;;;5070266;28;20492;-68
2023/06/09 11:46:21;;;;;;;3.10;2.80;;;27.00;95.80;;;;;;5060948;28;20469;-68
2023/06/09 11:49:15;;;;;;;2.37;2.03;;;27.10;95.20;;;;;;5053146;28;20658;-68
2023/06/09 11:51:54;;;;;;;2.27;2.07;;;27.00;96.70;;;;;;5052938;28;20469;-68
2023/06/09 11:54:21;;;;;;;2.03;1.93;;;27.30;96.40;;;;;;5052993;28;20969;-68
2023/06/09 11:56:49;;;;;;;2.90;2.70;;;27.40;96.80;;;;;;5061643;28;20544;-68
2023/06/09 11:59:18;;;;;;;2.33;2.13;;;27.60;95.70;;;;;;5048087;28;20991;-68
2023/06/09 12:01:47;;;;;;;2.43;2.23;;;27.70;95.60;;;;;;5072847;28;20560;-68
2023/06/09 12:04:14;;;;;;;2.43;2.13;;;27.80;96.70;;;;;;5061053;28;20489;-68
2023/06/09 12:06:41;;;;;;;2.10;1.90;;;27.90;95.40;;;;;;5068225;28;20458;-68
2023/06/09 12:09:20;;;;;;;2.60;2.40;;;28.00;94.10;;;;;;5055972;28;20489;-68
2023/06/09 12:11:54;;;;;;;2.63;2.23;;;27.70;94.40;;;;;;5064868;28;20466;-69
2023/06/09 12:14:21;;;;;;;2.13;2.00;;;27.80;95.80;;;;;;5065085;28;20458;-68
2023/06/09 12:16:50;;;;;;;2.50;2.30;;;27.70;94.90;;;;;;5063764;28;20459;-68
2023/06/09 12:19:18;;;;;;;2.60;2.33;;;27.80;95.20;;;;;;5052139;28;20489;-68
2023/06/09 12:21:48;;;;;;;3.13;2.83;;;28.00;94.50;;;;;;5068386;28;20465;-68
2023/06/09 12:24:15;;;;;;;2.73;2.53;;;28.10;93.80;;;;;;5068885;28;20511;-68
2023/06/09 12:26:42;;;;;;;3.13;2.90;;;28.20;94.70;;;;;;5052654;28;20852;-68
2023/06/09 12:29:09;;;;;;;3.00;2.70;;;28.20;93.10;;;;;;5060620;28;20489;-68
2023/06/09 12:31:43;;;;;;;2.90;2.50;;;28.30;93.70;;;;;;5060465;28;20459;-68
2023/06/09 12:34:21;;;;;;;3.53;2.57;;;28.10;92.80;;;;;;5071512;28;20473;-68
2023/06/09 12:36:48;;;;;;;2.80;2.60;;;28.10;92.80;;;;;;5064481;28;20496;-68
2023/06/09 12:39:18;;;;;;;2.40;2.20;;;28.00;93.80;;;;;;5051840;28;20532;-68
2023/06/09 12:41:45;;;;;;;2.90;2.70;;;28.20;95.70;;;;;;5059762;28;20487;-68
2023/06/09 12:44:20;;;;;;;2.40;2.20;;;28.30;94.60;;;;;;5063664;28;20917;-68
2023/06/09 12:46:54;;;;;;;4.07;2.20;;;28.30;94.80;;;;;;5072290;28;20968;-69
2023/06/09 12:49:27;;;;;;;2.33;2.13;;;28.40;93.90;;;;;;5059082;28;20486;-68
2023/06/09 12:51:54;;;;;;;2.17;1.97;;;28.10;93.70;;;;;;5060606;28;20491;-68
2023/06/09 12:54:21;;;;;;;2.10;1.90;;;28.10;94.60;;;;;;5072005;28;20451;-68
2023/06/09 12:56:48;;;;;;;2.50;2.30;;;28.20;93.90;;;;;;5063921;28;20826;-68
2023/06/09 12:59:14;;;;;;;2.50;2.30;;;28.40;93.00;;;;;;5071159;28;20478;-68
2023/06/09 13:01:41;;;;;;;2.90;2.70;;;28.20;92.60;;;;;;5064429;28;20966;-68
2023/06/09 13:04:08;;;;;;;3.00;2.80;;;28.10;94.40;;;;;;5062167;28;21046;-68
2023/06/09 13:06:36;;;;;;;2.73;2.50;;;28.30;94.30;;;;;;5071626;28;20513;-68
2023/06/09 13:09:03;;;;;;;2.70;2.50;;;28.20;93.40;;;;;;5061441;28;20512;-68
2023/06/09 13:11:32;;;;;;;3.10;2.80;;;28.10;93.30;;;;;;5056655;28;20466;-68
2023/06/09 13:13:58;;;;;;;2.10;1.90;;;27.90;93.80;;;;;;5070250;28;20899;-68
2023/06/09 13:16:25;;;;;;;2.23;2.03;;;27.70;93.10;;;;;;5059915;28;20469;-68